Time;durP1;ratioP1;P1;durP2;ratioP2;P2;SDS_P1;SDS_P2;PMS_P1;PMS_P2;Temp;Humidity;BMP_temperature;BMP_pressure;BME280_temperature;BME280_humidity;BME280_pressure;Samples;Min_cycle;Max_cycle;Signal;HPM_P1;HPM_P2
2022/07/12 00:02:25;;;;;;;0.00;0.00;;;15.50;99.90;14.60;98001.00;;;;5068930;28;20189;-73
2022/07/12 00:04:53;;;;;;;0.00;0.00;;;15.40;99.90;14.60;97999.00;;;;5071583;28;20225;-72
2022/07/12 00:07:23;;;;;;;0.00;0.00;;;15.30;99.90;14.50;97993.00;;;;5071030;28;20229;-73
2022/07/12 00:09:50;;;;;;;0.00;0.00;;;15.30;99.90;14.60;98004.00;;;;5071349;28;20218;-72
2022/07/12 00:12:19;;;;;;;0.00;0.00;;;15.30;99.90;14.60;97994.00;;;;5071598;28;20193;-72
2022/07/12 00:14:48;;;;;;;0.00;0.00;;;15.40;99.90;14.60;97988.00;;;;5070615;28;20196;-72
2022/07/12 00:17:16;;;;;;;0.00;0.00;;;15.30;99.90;14.50;97993.00;;;;5069714;28;20222;-74
2022/07/12 00:19:44;;;;;;;0.00;0.00;;;15.30;99.90;14.40;97988.00;;;;5071207;28;20689;-72
2022/07/12 00:22:12;;;;;;;0.00;0.00;;;15.20;99.90;14.30;97997.00;;;;5067590;28;20205;-72
2022/07/12 00:24:41;;;;;;;0.10;0.10;;;15.10;99.90;14.30;97996.00;;;;5071753;28;20190;-73
2022/07/12 00:27:09;;;;;;;0.03;0.03;;;15.10;99.90;14.30;98004.00;;;;5071887;28;20190;-73
2022/07/12 00:29:37;;;;;;;0.00;0.00;;;15.10;99.90;14.30;97999.00;;;;5068241;28;20321;-73
2022/07/12 00:32:07;;;;;;;0.00;0.00;;;15.10;99.90;14.30;97997.00;;;;5070497;28;20573;-73
2022/07/12 00:34:35;;;;;;;0.03;0.03;;;15.10;99.90;14.20;97996.00;;;;5073828;28;20199;-72
2022/07/12 00:37:04;;;;;;;0.00;0.00;;;15.00;99.90;14.20;98010.00;;;;5072943;28;20206;-73
2022/07/12 00:39:32;;;;;;;0.00;0.00;;;15.00;99.90;14.30;98002.00;;;;5077372;28;20212;-72
2022/07/12 00:42:01;;;;;;;0.00;0.00;;;15.10;99.90;14.30;97932.00;;;;5077652;28;20208;-72
2022/07/12 00:44:30;;;;;;;0.00;0.00;;;15.10;99.90;14.30;98004.00;;;;5082129;28;20294;-72
2022/07/12 00:46:59;;;;;;;0.00;0.00;;;15.10;99.90;14.30;97988.00;;;;5081183;28;20204;-72
2022/07/12 00:49:27;;;;;;;0.10;0.10;;;15.10;99.90;14.20;98003.00;;;;5081945;28;20267;-72
2022/07/12 00:51:56;;;;;;;0.00;0.00;;;15.00;99.90;14.00;97978.00;;;;5082800;28;20645;-71
2022/07/12 00:54:24;;;;;;;0.10;0.10;;;14.80;99.90;14.00;97991.00;;;;5082653;28;20200;-71
2022/07/12 00:56:52;;;;;;;0.10;0.10;;;14.70;99.90;13.90;97995.00;;;;5082847;28;20668;-73
2022/07/12 00:59:22;;;;;;;0.00;0.00;;;14.80;99.90;13.90;97990.00;;;;5082688;28;20217;-72
2022/07/12 01:01:50;;;;;;;0.10;0.10;;;14.80;99.90;13.90;98003.00;;;;5083037;28;20190;-72
2022/07/12 01:04:18;;;;;;;0.00;0.00;;;14.80;99.90;14.00;97998.00;;;;5082449;28;20198;-71
2022/07/12 01:06:46;;;;;;;0.00;0.00;;;14.90;99.90;14.10;97992.00;;;;5081108;28;20623;-72
2022/07/12 01:09:15;;;;;;;0.10;0.10;;;14.90;99.90;14.10;97988.00;;;;5078635;28;20252;-71
2022/07/12 01:11:43;;;;;;;0.10;0.10;;;15.00;99.90;14.10;97991.00;;;;5075698;28;20190;-72
2022/07/12 01:14:13;;;;;;;0.00;0.00;;;15.00;99.90;14.00;97986.00;;;;5078418;28;20185;-73
2022/07/12 01:16:44;;;;;;;0.10;0.10;;;14.90;99.90;14.00;97981.00;;;;5074651;28;20752;-72
2022/07/12 01:19:21;;;;;;;0.00;0.00;;;14.80;99.90;13.90;97985.00;;;;5077581;28;20221;-72
2022/07/12 01:21:51;;;;;;;0.10;0.10;;;14.70;99.90;13.90;97979.00;;;;5081230;28;20677;-73
2022/07/12 01:24:21;;;;;;;0.00;0.00;;;14.80;99.90;13.90;97974.00;;;;5084106;28;20192;-73
2022/07/12 01:26:50;;;;;;;0.10;0.10;;;14.80;99.90;13.90;97988.00;;;;5075945;28;20211;-73
2022/07/12 01:29:20;;;;;;;0.00;0.00;;;14.80;99.90;13.90;97980.00;;;;5076247;28;20306;-74
2022/07/12 01:31:49;;;;;;;0.00;0.00;;;14.80;99.90;13.90;97983.00;;;;5063989;28;20212;-74
2022/07/12 01:34:17;;;;;;;0.00;0.00;;;14.80;99.90;14.00;97977.00;;;;5069962;28;20244;-73
2022/07/12 01:36:46;;;;;;;0.00;0.00;;;14.90;99.90;14.00;97986.00;;;;5072689;28;20212;-74
2022/07/12 01:39:14;;;;;;;0.00;0.00;;;14.90;99.90;14.00;97989.00;;;;5069432;28;20581;-73
2022/07/12 01:41:44;;;;;;;0.03;0.03;;;14.90;99.90;13.90;97995.00;;;;5055691;28;20209;-73
2022/07/12 01:44:13;;;;;;;0.00;0.00;;;14.80;99.90;13.90;97985.00;;;;5083525;28;20669;-73
2022/07/12 01:46:41;;;;;;;0.10;0.10;;;14.70;99.90;13.90;97989.00;;;;5059621;28;20202;-72
2022/07/12 01:49:09;;;;;;;0.10;0.10;;;14.70;99.90;13.70;97984.00;;;;5072524;28;20640;-72
2022/07/12 01:51:37;;;;;;;0.05;0.05;;;14.50;99.90;13.60;97986.00;;;;5073271;28;20205;-73
2022/07/12 01:54:05;;;;;;;0.00;0.00;;;14.40;99.90;13.60;97985.00;;;;5070770;28;20198;-72
2022/07/12 01:56:35;;;;;;;0.00;0.00;;;14.40;99.90;13.50;97983.00;;;;5072710;28;20190;-72
2022/07/12 01:59:04;;;;;;;0.10;0.10;;;14.30;99.90;13.60;97986.00;;;;5072203;28;20206;-72
2022/07/12 02:01:34;;;;;;;0.10;0.10;;;14.40;99.90;13.60;97986.00;;;;5072223;28;20225;-72
2022/07/12 02:04:04;;;;;;;0.10;0.10;;;14.40;99.90;13.60;97981.00;;;;5071529;28;20284;-72
2022/07/12 02:06:33;;;;;;;0.00;0.00;;;14.50;99.90;13.50;97978.00;;;;5071666;28;20680;-72
2022/07/12 02:09:01;;;;;;;0.00;0.00;;;14.40;99.90;13.60;97974.00;;;;5071523;28;20225;-72
2022/07/12 02:11:29;;;;;;;0.00;0.00;;;14.50;99.90;13.60;97973.00;;;;5071498;28;20209;-72
2022/07/12 02:13:57;;;;;;;0.00;0.00;;;14.50;99.90;13.60;97970.00;;;;5071673;28;20538;-73
2022/07/12 02:16:26;;;;;;;0.00;0.00;;;14.40;99.90;13.50;97970.00;;;;5072607;28;20554;-71
2022/07/12 02:18:54;;;;;;;0.00;0.00;;;14.30;99.90;13.40;97972.00;;;;5073209;28;20697;-72
2022/07/12 02:21:22;;;;;;;0.05;0.05;;;14.20;99.90;13.30;97963.00;;;;5074118;28;20215;-73
2022/07/12 02:23:50;;;;;;;0.00;0.00;;;14.10;99.90;13.30;97975.00;;;;5073659;28;20196;-73
2022/07/12 02:26:19;;;;;;;0.10;0.10;;;14.10;99.90;13.30;97972.00;;;;5074091;28;20198;-72
2022/07/12 02:28:47;;;;;;;0.10;0.10;;;14.10;99.90;13.40;97978.00;;;;5074879;28;20213;-72
2022/07/12 02:31:15;;;;;;;0.00;0.00;;;14.20;99.90;13.40;97976.00;;;;5064496;28;20363;-72
2022/07/12 02:33:45;;;;;;;0.10;0.10;;;14.30;99.90;13.40;97975.00;;;;5069965;28;20206;-73
2022/07/12 02:36:13;;;;;;;0.00;0.00;;;14.30;99.90;13.50;97979.00;;;;5071914;28;20200;-74
2022/07/12 02:38:41;;;;;;;0.00;0.00;;;14.30;99.90;13.50;97975.00;;;;5064238;28;20221;-71
2022/07/12 02:41:09;;;;;;;0.10;0.10;;;14.30;99.90;13.60;97986.00;;;;5073350;28;20204;-73
2022/07/12 02:43:37;;;;;;;0.10;0.10;;;14.40;99.90;13.60;97980.00;;;;5072753;28;20569;-73
2022/07/12 02:46:08;;;;;;;0.10;0.10;;;14.40;99.90;13.70;97993.00;;;;5073597;28;20189;-73
2022/07/12 02:48:37;;;;;;;0.00;0.00;;;14.50;99.90;13.70;97985.00;;;;5063705;28;20220;-72
2022/07/12 02:51:08;;;;;;;0.10;0.10;;;14.50;99.90;13.70;97985.00;;;;5071383;28;20193;-71
2022/07/12 02:53:37;;;;;;;0.00;0.00;;;14.60;99.90;13.80;97984.00;;;;5072355;28;20200;-73
2022/07/12 02:56:09;;;;;;;0.10;0.10;;;14.60;99.90;13.80;97950.00;;;;5069810;28;20657;-75
2022/07/12 02:58:38;;;;;;;0.10;0.10;;;14.60;99.90;13.80;97941.00;;;;5072386;28;20661;-76
2022/07/12 03:01:06;;;;;;;0.00;0.00;;;14.60;99.90;13.80;97993.00;;;;5072308;28;20194;-75
2022/07/12 03:03:35;;;;;;;0.00;0.00;;;14.70;99.90;13.90;97994.00;;;;5071973;28;20202;-76
2022/07/12 03:06:03;;;;;;;0.00;0.00;;;14.70;99.90;13.90;97950.00;;;;5072669;28;20190;-75
2022/07/12 03:08:33;;;;;;;0.10;0.10;;;14.70;99.90;13.90;98002.00;;;;5067622;28;20214;-76
2022/07/12 03:11:01;;;;;;;0.00;0.00;;;14.80;99.90;13.90;97994.00;;;;5070103;28;20197;-75
2022/07/12 03:13:29;;;;;;;0.00;0.00;;;14.70;99.90;13.90;98005.00;;;;5069592;28;20193;-75
2022/07/12 03:15:57;;;;;;;0.00;0.00;;;14.80;99.90;13.90;97997.00;;;;5073670;28;20655;-75
2022/07/12 03:18:25;;;;;;;0.05;0.05;;;14.70;99.90;13.90;98009.00;;;;5068416;28;20237;-76
2022/07/12 03:20:53;;;;;;;0.10;0.10;;;14.80;99.90;14.00;98011.00;;;;5072815;28;20299;-75
2022/07/12 03:23:21;;;;;;;0.10;0.10;;;14.80;99.90;13.90;98011.00;;;;5072920;28;20198;-75
2022/07/12 03:25:51;;;;;;;0.00;0.00;;;14.80;99.90;14.00;98015.00;;;;5072512;28;20189;-75
2022/07/12 03:28:19;;;;;;;0.10;0.10;;;14.90;99.90;13.90;98008.00;;;;5072749;28;20213;-75
2022/07/12 03:30:47;;;;;;;0.00;0.00;;;14.80;99.90;13.90;98011.00;;;;5072382;28;20588;-74
2022/07/12 03:33:15;;;;;;;0.00;0.00;;;14.80;99.90;13.90;98010.00;;;;5071396;28;20189;-74
2022/07/12 03:35:43;;;;;;;0.00;0.00;;;14.80;99.90;13.90;98018.00;;;;5071883;28;20190;-75
2022/07/12 03:38:11;;;;;;;0.10;0.10;;;14.80;99.90;14.00;98025.00;;;;5066080;28;20209;-76
2022/07/12 03:40:39;;;;;;;0.00;0.00;;;14.90;99.90;14.00;98017.00;;;;5072215;28;20217;-73
2022/07/12 03:43:08;;;;;;;0.00;0.00;;;14.90;99.90;14.10;98017.00;;;;5053160;28;20199;-73
2022/07/12 03:45:36;;;;;;;0.00;0.00;;;15.00;99.90;14.20;98021.00;;;;5068945;28;20263;-74
2022/07/12 03:48:05;;;;;;;0.00;0.00;;;15.00;99.90;14.20;98026.00;;;;5070334;28;20542;-74
2022/07/12 03:50:33;;;;;;;0.08;0.08;;;15.10;99.90;14.30;98028.00;;;;5069166;28;20572;-74
2022/07/12 03:53:01;;;;;;;0.00;0.00;;;15.10;99.90;14.40;98035.00;;;;5068393;28;20565;-74
2022/07/12 03:55:29;;;;;;;0.03;0.03;;;15.20;99.90;14.40;98023.00;;;;5071962;28;20205;-73
2022/07/12 03:57:57;;;;;;;0.10;0.10;;;15.20;99.90;14.40;98028.00;;;;5070714;28;20202;-74
2022/07/12 04:00:26;;;;;;;0.10;0.10;;;15.30;99.90;14.40;98028.00;;;;5072018;28;20201;-74
2022/07/12 04:02:54;;;;;;;0.00;0.00;;;15.20;99.90;14.40;98028.00;;;;5071356;28;20543;-74
2022/07/12 04:05:26;;;;;;;0.00;0.00;;;15.20;99.90;14.30;98022.00;;;;5074437;28;20198;-73
2022/07/12 04:07:55;;;;;;;0.00;0.00;;;15.20;99.90;14.30;98023.00;;;;5072927;28;20260;-74
2022/07/12 04:10:23;;;;;;;0.00;0.00;;;15.10;99.90;14.20;98023.00;;;;5074712;28;20696;-74
2022/07/12 04:12:51;;;;;;;0.00;0.00;;;15.00;99.90;14.20;98029.00;;;;5074943;28;20232;-74
2022/07/12 04:15:20;;;;;;;0.00;0.00;;;15.00;99.90;14.20;98026.00;;;;5074077;28;20201;-76
2022/07/12 04:17:49;;;;;;;0.00;0.00;;;15.00;99.90;14.20;98007.00;;;;5074681;28;20193;-76
2022/07/12 04:20:18;;;;;;;0.00;0.00;;;15.00;99.90;14.20;98024.00;;;;5074723;28;20301;-76
2022/07/12 04:22:46;;;;;;;0.00;0.00;;;15.10;99.90;14.30;98023.00;;;;5075110;28;20190;-77
2022/07/12 04:25:14;;;;;;;0.10;0.10;;;15.20;99.90;14.40;98034.00;;;;5074042;28;20204;-75
2022/07/12 04:27:42;;;;;;;0.00;0.00;;;15.20;99.90;14.50;98018.00;;;;5073833;28;20248;-75
2022/07/12 04:30:11;;;;;;;0.00;0.00;;;15.30;99.90;14.50;98023.00;;;;5074512;28;20209;-75
2022/07/12 04:32:39;;;;;;;0.00;0.00;;;15.30;99.90;14.50;97951.00;;;;5073676;28;20205;-75
2022/07/12 04:35:08;;;;;;;0.10;0.10;;;15.30;99.90;14.50;98026.00;;;;5073854;28;20212;-74
2022/07/12 04:37:36;;;;;;;0.00;0.00;;;15.40;99.90;14.60;98029.00;;;;5073785;28;20213;-75
2022/07/12 04:40:06;;;;;;;0.00;0.00;;;15.40;99.90;14.70;98018.00;;;;5075586;28;20214;-75
2022/07/12 04:42:34;;;;;;;0.00;0.00;;;15.40;99.90;14.70;98023.00;;;;5075128;28;20201;-75
2022/07/12 04:45:02;;;;;;;0.00;0.00;;;15.40;99.90;14.70;98029.00;;;;5073841;28;20213;-75
2022/07/12 04:47:30;;;;;;;0.00;0.00;;;15.40;99.90;14.70;98039.00;;;;5073740;28;20194;-75
2022/07/12 04:49:58;;;;;;;0.00;0.00;;;15.40;99.90;14.80;98041.00;;;;5072984;28;20742;-74
2022/07/12 04:52:27;;;;;;;0.00;0.00;;;15.50;99.90;14.80;98042.00;;;;5074223;28;20201;-74
2022/07/12 04:54:55;;;;;;;0.03;0.03;;;15.60;99.90;14.90;98041.00;;;;5073620;28;20197;-74
2022/07/12 04:57:23;;;;;;;0.00;0.00;;;15.60;99.90;15.00;98053.00;;;;5073951;28;20198;-75
2022/07/12 04:59:51;;;;;;;0.00;0.00;;;15.70;99.90;15.10;98060.00;;;;5075689;28;20215;-74
2022/07/12 05:02:19;;;;;;;0.00;0.00;;;15.90;99.90;15.10;98056.00;;;;5086069;28;20193;-75
2022/07/12 05:04:47;;;;;;;0.03;0.03;;;15.90;99.90;15.00;98055.00;;;;5072571;28;20197;-74
2022/07/12 05:07:15;;;;;;;0.00;0.00;;;15.70;99.90;14.90;98047.00;;;;5073593;28;20186;-76
2022/07/12 05:09:44;;;;;;;0.00;0.00;;;15.60;99.90;14.90;98054.00;;;;5072670;28;20225;-74
2022/07/12 05:12:12;;;;;;;0.00;0.00;;;15.60;99.90;14.90;98051.00;;;;5072592;28;21014;-75
2022/07/12 05:14:40;;;;;;;0.10;0.10;;;15.60;99.90;14.90;98046.00;;;;5071747;28;20201;-76
2022/07/12 05:17:08;;;;;;;0.00;0.00;;;15.60;99.90;14.90;98054.00;;;;5063474;28;20665;-76
2022/07/12 05:19:37;;;;;;;0.00;0.00;;;15.60;99.90;14.90;98055.00;;;;5073084;28;20323;-76
2022/07/12 05:22:06;;;;;;;0.00;0.00;;;15.70;99.90;15.00;98010.00;;;;5073646;28;20212;-76
2022/07/12 05:24:34;;;;;;;0.00;0.00;;;15.70;99.90;15.00;98069.00;;;;5074039;28;20193;-77
2022/07/12 05:27:04;;;;;;;0.00;0.00;;;15.80;99.90;15.00;98071.00;;;;5072777;28;20194;-74
2022/07/12 05:29:32;;;;;;;0.00;0.00;;;15.80;99.90;15.10;98071.00;;;;5072919;28;20221;-74
2022/07/12 05:32:01;;;;;;;0.00;0.00;;;15.80;99.90;15.10;98065.00;;;;5073475;28;20217;-74
2022/07/12 05:34:38;;;;;;;0.00;0.00;;;15.80;99.90;15.10;98031.00;;;;5072786;28;20206;-75
2022/07/12 05:37:06;;;;;;;0.00;0.00;;;15.80;99.90;15.10;98061.00;;;;5072167;28;20192;-75
2022/07/12 05:39:34;;;;;;;0.00;0.00;;;15.80;99.90;15.20;98067.00;;;;5071935;28;20221;-75
2022/07/12 05:42:09;;;;;;;0.00;0.00;;;16.00;99.90;15.40;98067.00;;;;5073004;28;20550;-74
2022/07/12 05:44:37;;;;;;;0.00;0.00;;;16.10;99.90;15.50;98062.00;;;;5072464;28;20198;-75
2022/07/12 05:47:05;;;;;;;0.00;0.00;;;16.20;99.90;15.60;98078.00;;;;5072715;28;20194;-75
2022/07/12 05:49:33;;;;;;;0.00;0.00;;;16.30;99.90;15.70;98087.00;;;;5073012;28;20209;-75
2022/07/12 05:54:47;;;;;;;0.00;0.00;;;16.40;99.90;15.70;98103.00;;;;5067438;28;20212;-74
2022/07/12 05:57:17;;;;;;;0.00;0.00;;;16.40;99.90;15.70;98084.00;;;;5072850;28;20486;-75
2022/07/12 05:59:45;;;;;;;0.00;0.00;;;16.40;99.90;15.80;98090.00;;;;5072467;28;20226;-74
2022/07/12 06:02:13;;;;;;;0.00;0.00;;;16.50;99.90;15.90;98084.00;;;;5072500;28;20205;-73
2022/07/12 06:04:41;;;;;;;0.00;0.00;;;16.60;99.90;16.00;98086.00;;;;5073479;28;20200;-75
2022/07/12 06:07:17;;;;;;;0.00;0.00;;;16.70;99.90;15.90;98084.00;;;;5070580;28;20201;-74
2022/07/12 06:09:45;;;;;;;0.00;0.00;;;16.60;99.90;15.80;98089.00;;;;5071728;28;20685;-73
2022/07/12 06:12:13;;;;;;;0.05;0.05;;;16.50;99.90;15.80;98097.00;;;;5071273;28;20225;-74
2022/07/12 06:14:42;;;;;;;0.00;0.00;;;16.40;99.90;15.80;98097.00;;;;5072447;28;20197;-74
2022/07/12 06:17:10;;;;;;;0.00;0.00;;;16.50;99.90;15.80;98095.00;;;;5071191;28;20193;-74
2022/07/12 06:19:38;;;;;;;0.00;0.00;;;16.60;99.90;16.00;98094.00;;;;5072115;28;20205;-74
2022/07/12 06:22:06;;;;;;;0.00;0.00;;;16.70;99.90;16.10;98100.00;;;;5072397;28;20202;-74
2022/07/12 06:24:34;;;;;;;0.00;0.00;;;16.80;99.90;16.20;98098.00;;;;5072540;28;20325;-74
2022/07/12 06:27:02;;;;;;;0.00;0.00;;;16.90;99.90;16.30;98098.00;;;;5071699;28;20684;-75
2022/07/12 06:29:30;;;;;;;0.00;0.00;;;17.00;99.90;16.40;98110.00;;;;5073234;28;20217;-74
2022/07/12 06:32:00;;;;;;;0.00;0.00;;;17.10;99.90;16.50;98108.00;;;;5073692;28;20259;-75
2022/07/12 06:34:28;;;;;;;0.10;0.10;;;17.20;99.90;16.60;98107.00;;;;5072130;28;20676;-74
2022/07/12 06:36:56;;;;;;;0.00;0.00;;;17.30;99.90;16.70;98111.00;;;;5074261;28;20239;-74
2022/07/12 06:39:24;;;;;;;0.10;0.10;;;17.40;99.90;16.70;98111.00;;;;5072888;28;20221;-74
2022/07/12 06:41:52;;;;;;;0.00;0.00;;;17.40;99.90;16.70;98112.00;;;;5072509;28;20271;-74
2022/07/12 06:44:20;;;;;;;0.00;0.00;;;17.40;99.90;16.80;98115.00;;;;5072424;28;20197;-74
2022/07/12 06:46:47;;;;;;;0.00;0.00;;;17.50;99.90;16.90;98119.00;;;;5071964;28;20194;-75
2022/07/12 06:49:17;;;;;;;0.00;0.00;;;17.60;99.90;16.90;98122.00;;;;5071444;28;20279;-75
2022/07/12 06:51:46;;;;;;;0.00;0.00;;;17.60;99.90;17.00;98123.00;;;;5071938;28;20229;-75
2022/07/12 06:54:14;;;;;;;0.00;0.00;;;17.70;99.90;17.10;98119.00;;;;5075870;28;20209;-74
2022/07/12 06:56:42;;;;;;;0.00;0.00;;;17.70;99.90;17.20;98118.00;;;;5073534;28;20241;-75
2022/07/12 06:59:10;;;;;;;0.00;0.00;;;17.80;99.90;17.40;98112.00;;;;5073184;28;20210;-75
2022/07/12 07:01:43;;;;;;;0.00;0.00;;;18.00;99.90;17.50;98121.00;;;;5072711;28;20687;-75
2022/07/12 07:04:11;;;;;;;0.00;0.00;;;18.10;99.90;17.60;98132.00;;;;5073222;28;20193;-74
2022/07/12 07:06:40;;;;;;;0.00;0.00;;;18.20;99.90;17.70;98128.00;;;;5065750;28;20193;-75
2022/07/12 07:09:08;;;;;;;0.00;0.00;;;18.30;99.90;17.70;98117.00;;;;5070604;28;20727;-75
2022/07/12 07:11:36;;;;;;;0.00;0.00;;;18.30;99.90;17.90;98117.00;;;;5072265;28;20220;-75
2022/07/12 07:14:04;;;;;;;0.00;0.00;;;18.50;99.90;18.10;98116.00;;;;5069262;28;20285;-75
2022/07/12 07:16:32;;;;;;;0.00;0.00;;;18.60;99.90;18.00;98108.00;;;;5056774;28;20529;-75
2022/07/12 07:19:02;;;;;;;0.00;0.00;;;18.60;99.90;18.20;98114.00;;;;5073008;28;20577;-75
2022/07/12 07:21:30;;;;;;;0.00;0.00;;;18.80;99.90;18.30;98112.00;;;;5072953;28;20217;-74
2022/07/12 07:24:00;;;;;;;0.00;0.00;;;18.90;99.90;18.10;98118.00;;;;5071508;28;20673;-74
2022/07/12 07:26:28;;;;;;;0.08;0.08;;;18.80;99.90;18.20;98119.00;;;;5071476;28;20480;-74
2022/07/12 07:31:41;;;;;;;0.00;0.00;;;19.00;99.90;18.70;98122.00;;;;5053901;28;20216;-75
2022/07/12 07:34:09;;;;;;;0.00;0.00;;;19.20;99.90;18.80;98127.00;;;;5059290;28;20194;-74
2022/07/12 07:36:37;;;;;;;0.00;0.00;;;19.40;99.90;18.90;98120.00;;;;5071308;28;20198;-75
2022/07/12 07:39:07;;;;;;;0.05;0.05;;;19.50;99.90;19.00;98116.00;;;;5074577;28;20201;-74
2022/07/12 07:41:35;;;;;;;0.00;0.00;;;19.50;99.90;19.30;98129.00;;;;5075681;28;20197;-74
2022/07/12 07:44:03;;;;;;;0.00;0.00;;;19.80;99.90;19.30;98116.00;;;;5075493;28;20192;-74
2022/07/12 07:46:31;;;;;;;0.00;0.00;;;20.00;99.90;18.90;98126.00;;;;5075120;28;20190;-74
2022/07/12 07:48:59;;;;;;;0.00;0.00;;;19.80;99.90;19.20;98128.00;;;;5073937;28;20554;-74
2022/07/12 07:51:27;;;;;;;0.00;0.00;;;19.90;99.90;19.10;98125.00;;;;5074829;28;20213;-74
2022/07/12 07:53:55;;;;;;;0.00;0.00;;;19.80;99.90;18.80;98124.00;;;;5074647;28;20194;-75
2022/07/12 07:56:24;;;;;;;0.00;0.00;;;19.60;99.90;19.00;98123.00;;;;5074644;28;20201;-75
2022/07/12 07:58:53;;;;;;;0.00;0.00;;;19.70;99.90;19.40;98131.00;;;;5075136;28;20217;-74
2022/07/12 08:01:42;;;;;;;0.00;0.00;;;19.90;99.90;19.70;98127.00;;;;5074944;28;20196;-75
2022/07/12 08:04:10;;;;;;;0.00;0.00;;;20.20;99.90;19.80;98131.00;;;;5073702;28;20239;-75
2022/07/12 08:06:38;;;;;;;0.00;0.00;;;20.30;99.90;19.60;98124.00;;;;5074700;28;20197;-74
2022/07/12 08:09:07;;;;;;;0.00;0.00;;;20.50;99.90;20.20;98132.00;;;;5074494;28;20668;-75
2022/07/12 08:11:42;;;;;;;0.00;0.00;;;20.70;99.90;19.80;98117.00;;;;5074992;28;20245;-75
2022/07/12 08:14:11;;;;;;;0.00;0.00;;;20.50;99.90;20.00;98115.00;;;;5073448;28;20206;-75
2022/07/12 08:16:40;;;;;;;0.00;0.00;;;20.50;99.90;20.30;98115.00;;;;5056833;28;20202;-75
2022/07/12 08:19:08;;;;;;;0.00;0.00;;;20.80;99.90;20.70;98107.00;;;;5075612;28;20608;-75
2022/07/12 08:21:36;;;;;;;0.00;0.00;;;21.00;99.90;20.70;98106.00;;;;5068432;28;20214;-75
2022/07/12 08:24:04;;;;;;;0.00;0.00;;;21.10;99.90;21.10;98106.00;;;;5054633;28;20213;-75
2022/07/12 08:26:32;;;;;;;0.00;0.00;;;21.50;99.90;21.50;98105.00;;;;5054592;28;20654;-75
2022/07/12 08:29:02;;;;;;;0.00;0.00;;;21.90;99.90;22.00;98101.00;;;;5054300;28;20210;-75
2022/07/12 08:31:30;;;;;;;0.00;0.00;;;22.30;99.90;22.10;98108.00;;;;5054323;28;20204;-74
2022/07/12 08:33:58;;;;;;;0.00;0.00;;;22.40;99.90;22.20;98108.00;;;;5069160;28;20190;-74
2022/07/12 08:36:26;;;;;;;0.00;0.00;;;22.60;99.90;22.60;98114.00;;;;5072853;28;20198;-75
2022/07/12 08:39:00;;;;;;;0.00;0.00;;;22.90;99.90;22.40;98109.00;;;;5073976;28;20214;-75
2022/07/12 08:41:29;;;;;;;0.00;0.00;;;22.90;99.90;22.30;98103.00;;;;5060830;28;20198;-74
2022/07/12 08:43:57;;;;;;;0.00;0.00;;;22.90;99.90;21.90;98099.00;;;;5057705;28;20202;-74
2022/07/12 08:46:26;;;;;;;0.00;0.00;;;22.20;99.90;21.00;98078.00;;;;5074190;28;20595;-74
2022/07/12 08:48:54;;;;;;;0.00;0.00;;;21.70;99.90;20.90;98092.00;;;;5105099;28;20308;-75
2022/07/12 08:51:23;;;;;;;0.00;0.00;;;21.50;99.90;20.50;98097.00;;;;5073884;28;20759;-74
2022/07/12 08:54:07;;;;;;;0.00;0.00;;;21.30;99.90;20.60;98096.00;;;;5077136;28;20220;-75
2022/07/12 08:56:39;;;;;;;0.00;0.00;;;21.40;99.90;20.90;98090.00;;;;5075185;28;20301;-75
2022/07/12 08:59:15;;;;;;;0.00;0.00;;;21.50;99.90;20.80;98107.00;;;;5075934;28;20708;-74
2022/07/12 09:01:49;;;;;;;0.00;0.00;;;21.40;99.90;20.90;98102.00;;;;5076577;28;20193;-74
2022/07/12 09:04:22;;;;;;;0.00;0.00;;;21.50;99.90;21.60;98098.00;;;;5075425;28;20224;-74
2022/07/12 09:06:51;;;;;;;0.00;0.00;;;21.90;99.90;22.00;98023.00;;;;5076091;28;20243;-74
2022/07/12 09:09:28;;;;;;;0.00;0.00;;;22.40;99.90;22.60;98114.00;;;;5091822;28;20225;-74
2022/07/12 09:11:57;;;;;;;0.00;0.00;;;22.80;99.90;22.40;98106.00;;;;5076406;28;20197;-74
2022/07/12 09:14:26;;;;;;;0.00;0.00;;;22.60;99.90;22.30;98111.00;;;;5076657;28;20282;-74
2022/07/12 09:17:04;;;;;;;0.00;0.00;;;22.80;99.90;22.40;98111.00;;;;5076433;28;20190;-74
2022/07/12 09:19:33;;;;;;;0.00;0.00;;;22.90;99.90;22.40;98109.00;;;;5077338;28;20217;-75
2022/07/12 09:22:01;;;;;;;0.00;0.00;;;22.90;99.90;22.70;98117.00;;;;5078119;28;20205;-74
2022/07/12 09:24:29;;;;;;;0.00;0.00;;;23.10;99.90;23.00;98104.00;;;;5078123;28;20277;-76
2022/07/12 09:27:01;;;;;;;0.00;0.00;;;23.30;99.90;23.10;98109.00;;;;5076014;28;20194;-74
2022/07/12 09:29:29;;;;;;;0.00;0.00;;;23.40;99.90;23.30;98109.00;;;;5075464;28;20214;-74
2022/07/12 09:37:40;;;;;;;0.00;0.00;;;23.90;99.90;23.30;98112.00;;;;5074808;28;20561;-73
2022/07/12 09:40:10;;;;;;;0.00;0.00;;;23.80;99.90;23.40;98107.00;;;;5075639;28;20213;-76
2022/07/12 09:42:40;;;;;;;0.00;0.00;;;23.80;99.90;23.60;98109.00;;;;5077821;28;20197;-75
2022/07/12 09:45:10;;;;;;;0.00;0.00;;;23.90;99.90;23.60;98113.00;;;;5075580;28;20196;-75
2022/07/12 09:47:39;;;;;;;0.00;0.00;;;23.90;99.90;23.50;98110.00;;;;5075292;28;20653;-75
2022/07/12 09:50:10;;;;;;;0.00;0.00;;;23.90;99.90;23.20;98111.00;;;;5074324;28;20426;-74
2022/07/12 09:52:40;;;;;;;0.00;0.00;;;23.90;98.00;23.10;98115.00;;;;5067962;28;20243;-76
2022/07/12 09:55:10;;;;;;;0.00;0.00;;;23.60;98.80;23.60;98065.00;;;;5058691;28;20218;-75
2022/07/12 09:57:42;;;;;;;0.00;0.00;;;23.90;98.40;24.00;98113.00;;;;5055188;28;20201;-75
2022/07/12 10:00:12;;;;;;;0.00;0.00;;;24.10;98.00;24.40;98116.00;;;;5059152;28;20210;-75
2022/07/12 10:02:42;;;;;;;0.00;0.00;;;24.50;97.60;24.50;98122.00;;;;5073187;28;20197;-75
2022/07/12 10:05:12;;;;;;;0.00;0.00;;;24.70;97.40;24.50;98123.00;;;;5073092;28;20281;-75
2022/07/12 10:07:40;;;;;;;0.00;0.00;;;24.80;97.10;24.30;98125.00;;;;5073479;28;20572;-75
2022/07/12 10:10:11;;;;;;;0.00;0.00;;;24.70;96.80;23.80;98071.00;;;;5074495;28;20220;-75
2022/07/12 10:12:42;;;;;;;0.00;0.00;;;24.30;97.60;23.50;98107.00;;;;5074392;28;20235;-75
2022/07/12 10:15:16;;;;;;;0.00;0.00;;;24.30;97.70;24.00;98116.00;;;;5072568;28;20202;-75
2022/07/12 10:17:53;;;;;;;0.00;0.00;;;24.40;98.00;24.30;98116.00;;;;5071961;28;20571;-75
2022/07/12 10:20:26;;;;;;;0.00;0.00;;;24.70;97.50;24.40;98123.00;;;;5071679;28;20223;-76
2022/07/12 10:22:56;;;;;;;0.00;0.00;;;24.80;96.60;24.50;98111.00;;;;5076854;28;20313;-75
2022/07/12 10:25:32;;;;;;;0.00;0.00;;;24.80;96.70;24.30;98115.00;;;;5071615;28;20194;-75
2022/07/12 10:28:01;;;;;;;0.00;0.00;;;24.70;96.70;24.10;98118.00;;;;5068687;28;20201;-75
2022/07/12 10:30:31;;;;;;;0.00;0.00;;;24.60;96.50;24.00;98116.00;;;;5061703;28;20204;-75
2022/07/12 10:33:00;;;;;;;0.00;0.00;;;24.30;96.50;23.20;98121.00;;;;5053993;28;20217;-75
2022/07/12 10:35:31;;;;;;;0.00;0.00;;;23.90;97.00;23.60;98127.00;;;;5067987;28;20217;-75
2022/07/12 10:38:20;;;;;;;0.00;0.00;;;24.10;97.40;23.50;98125.00;;;;5073137;28;20593;-75
2022/07/12 10:40:50;;;;;;;0.00;0.00;;;24.10;97.20;23.10;98128.00;;;;5074903;28;20433;-74
2022/07/12 10:46:22;;;;;;;0.00;0.00;;;24.00;96.50;23.80;98100.00;;;;5075221;28;20208;-74
2022/07/12 10:48:51;;;;;;;0.00;0.00;;;24.10;96.40;24.40;98121.00;;;;5072703;28;20396;-74
2022/07/12 10:51:20;;;;;;;0.00;0.00;;;24.60;96.50;24.90;98114.00;;;;5076777;28;20201;-74
2022/07/12 10:53:50;;;;;;;0.00;0.00;;;25.00;95.90;24.50;98124.00;;;;5073451;28;20653;-74
2022/07/12 10:56:25;;;;;;;0.00;0.00;;;25.00;95.20;24.50;98127.00;;;;5073015;28;20221;-74
2022/07/12 10:58:59;;;;;;;0.00;0.00;;;25.10;95.70;25.10;98119.00;;;;5072993;28;20251;-74
2022/07/12 11:01:30;;;;;;;0.00;0.00;;;25.30;95.40;25.50;98135.00;;;;5073445;28;20208;-74
2022/07/12 11:04:06;;;;;;;0.00;0.00;;;25.60;95.20;25.80;98128.00;;;;5074137;28;20326;-74
2022/07/12 11:06:39;;;;;;;0.00;0.00;;;25.90;94.80;26.00;98129.00;;;;5072539;28;20196;-74
2022/07/12 11:09:11;;;;;;;0.00;0.00;;;26.20;94.30;26.20;98138.00;;;;5072905;28;20210;-74
2022/07/12 11:11:44;;;;;;;0.00;0.00;;;26.30;93.70;26.30;98128.00;;;;5072845;28;20185;-74
2022/07/12 11:14:20;;;;;;;0.00;0.00;;;26.50;93.80;26.70;98127.00;;;;5072355;28;20217;-74
2022/07/12 11:16:51;;;;;;;0.00;0.00;;;26.70;93.50;26.80;98101.00;;;;5071298;28;20201;-74
2022/07/12 11:19:23;;;;;;;0.00;0.00;;;26.90;93.10;26.40;98130.00;;;;5072354;28;20299;-74